Zakirovskiy Airport

Jump to: basic info | weather | comments

Related pages: nearby airports | nearby navaids

Basic information (top)

Location: lon 43.448002, lat 77.049599, elev 2,038 ft / 621 m msl
Status: small_airport

Weather (top)

Current conditions for Almaty Airport 6nm (11km) S (rec'd 2014/09/21 15:30Z):

UAAA 211530Z 14003MPS 2500 FU FEW100 SCT200 12/03 Q1020 R88/65D NOSIG

Airport forecast for Almaty Airport 6nm (11km) S (rec'd 2014/09/21 12:00Z):

TAF UAAA 211100Z 2112/2212 16005MPS 9999 SCT050CB BKN100 TX21/2208Z TN05/2201Z 
      TEMPO 2113/2118 2000 FU 
      BECMG 2204/2205 04006MPS

Latest comments (top)

No comments yet for Zakirovskiy Airport

More... (top)

See also NOTAMs and nearby airports and navaids, or visit the Zakirovskiy Airport page at the main OurAirports website..